Savage Legacy — WDH4244 — position and weather

sailwx.info

Track history (hours):
 
Tides and Currents Weather Stations Pressure Air Temp Water Temp Dewpoint Dewpoint Depression Visibility Wind Speed Wind Dir Waves Ship Positions

Savage Legacy

Owner: Savage Inland Marine, Gibson, LA. More information available from US FCC via Universal Licensing System and Coast Guard Vessel Documentation Center.

Last reported at 2018-Feb-23 05:00 UTC. Time now 2018-Feb-23 05:00 UTC.
Position N 30°04' W 093°20'.

MMSI: 367615680.

Date/timePositionNaut miles runAvg speedWind from/ knotsBaromVisibWave heightAir tempDewpointWater temp
2018-Feb-23 05:00N 30°04' W 093°20'0 0.0
2018-Feb-23 04:28N 30°04' W 093°20'0 0.0
2018-Feb-23 03:55N 30°04' W 093°20'0 0.0
2018-Feb-23 03:28N 30°04' W 093°20'0 0.0
2018-Feb-23 02:58N 30°04' W 093°20'0 0.0
2018-Feb-23 02:30N 30°04' W 093°20'0 0.0
2018-Feb-23 02:00N 30°04' W 093°20'0 0.0
2018-Feb-23 01:28N 30°04' W 093°20'0 0.0
2018-Feb-23 01:00N 30°04' W 093°20'0 0.0
2018-Feb-23 00:30N 30°04' W 093°20'1 2.0
2018-Feb-22 23:58N 30°05' W 093°20'2 2.5
2018-Feb-22 23:22N 30°06' W 093°18'0 0.0
2018-Feb-22 22:56N 30°06' W 093°18'0 0.0
2018-Feb-22 22:30N 30°06' W 093°18'3 4.3
2018-Feb-22 21:53N 30°04' W 093°20'1 1.9
2018-Feb-22 21:21N 30°04' W 093°21'0 0.0
2018-Feb-22 20:59N 30°04' W 093°21'2 0.4
2018-Feb-22 16:32N 30°05' W 093°20'0 0.0
2018-Feb-22 16:30N 30°05' W 093°20'0 0.0
2018-Feb-22 15:48N 30°05' W 093°20'0 0.0
2018-Feb-22 15:30N 30°05' W 093°20'1 2.0
2018-Feb-22 14:54N 30°04' W 093°21'1 1.4
2018-Feb-22 14:16N 30°05' W 093°20'0 1.1
2018-Feb-22 13:52N 30°04' W 093°20'1 2.4
2018-Feb-22 13:30N 30°04' W 093°21'2 3.2
2018-Feb-22 13:00N 30°04' W 093°23'1 1.0
2018-Feb-22 12:28N 30°04' W 093°23'3 4.3
2018-Feb-22 11:46N 30°04' W 093°27'8 5.0
2018-Feb-22 10:14N 30°04' W 093°36'2 5.1
2018-Feb-22 09:46N 30°04' W 093°39'2 5.2
2018-Feb-22 09:28N 30°04' W 093°40'2 5.3
2018-Feb-22 09:00N 30°03' W 093°43'2 5.0
2018-Feb-22 08:30N 30°01' W 093°45'3 5.4
2018-Feb-22 08:00N 29°59' W 093°47'3 6.4
2018-Feb-22 07:30N 29°58' W 093°51'3 5.8
2018-Feb-22 07:00N 29°56' W 093°52'3 5.8
2018-Feb-22 06:30N 29°54' W 093°55'3 6.0
2018-Feb-22 06:00N 29°51' W 093°57'2 4.8
2018-Feb-22 05:30N 29°49' W 093°58'2 3.1
2018-Feb-22 05:00N 29°49' W 093°60'3 5.8
2018-Feb-22 04:30N 29°46' W 094°02'3 5.5
2018-Feb-22 04:00N 29°45' W 094°05'3 5.4
2018-Feb-22 03:30N 29°43' W 094°07'3 5.5
2018-Feb-22 03:00N 29°41' W 094°10'3 5.3
2018-Feb-22 02:30N 29°41' W 094°13'2 4.3
2018-Feb-22 02:00N 29°40' W 094°15'3 5.0
2018-Feb-22 01:30N 29°38' W 094°17'163 3.3
2018-Feb-20 00:16N 28°09' W 096°54'2 4.1
2018-Feb-19 23:53N 28°08' W 096°55'2 4.8
2018-Feb-19 23:29N 28°07' W 096°56'3 5.6
2018-Feb-19 22:59N 28°04' W 096°58'3 5.7
2018-Feb-19 22:29N 28°02' W 096°60'3 5.8
2018-Feb-19 21:59N 27°60' W 097°02'7 5.6
2018-Feb-19 20:39N 27°52' W 097°03'1 6.5
2018-Feb-19 20:30N 27°52' W 097°03'6 0.2
2018-Feb-18 18:56N 27°50' W 097°09'3 6.5
2018-Feb-18 18:27N 27°50' W 097°06'2 5.2
2018-Feb-18 17:59N 27°51' W 097°03'4 7.0
2018-Feb-18 17:24N 27°55' W 097°03'3 7.6
2018-Feb-18 16:58N 27°58' W 097°03'3 7.3
2018-Feb-18 16:30N 28°01' W 097°01'4 7.0
2018-Feb-18 16:00N 28°04' W 096°58'3 6.7
2018-Feb-18 15:29N 28°07' W 096°56'3 6.6
2018-Feb-18 15:00N 28°09' W 096°54'3 6.6
2018-Feb-18 14:29N 28°11' W 096°51'2 4.9
2018-Feb-18 14:00N 28°13' W 096°49'16 3.5
2018-Feb-18 09:28N 28°22' W 096°34'0 0.0
2018-Feb-18 08:52N 28°22' W 096°34'0 0.0
2018-Feb-18 07:56N 28°22' W 096°34'0 0.0
2018-Feb-18 07:26N 28°22' W 096°34'0 0.0
2018-Feb-18 05:12N 28°22' W 096°34'0 0.0
2018-Feb-18 04:51N 28°22' W 096°34'0 0.0
2018-Feb-18 04:28N 28°22' W 096°34'0 0.0
2018-Feb-18 03:59N 28°22' W 096°34'0 0.0
2018-Feb-18 03:28N 28°22' W 096°34'0 0.0
2018-Feb-18 02:58N 28°22' W 096°34'0 0.0
2018-Feb-18 02:27N 28°22' W 096°34'0 0.0
2018-Feb-18 01:59N 28°22' W 096°34'0 0.0
2018-Feb-18 01:11N 28°22' W 096°34'97 2.3
2018-Feb-16 08:07N 29°14' W 095°02'0 0.0
2018-Feb-16 08:00N 29°14' W 095°02'0 0.0
2018-Feb-16 07:30N 29°14' W 095°02'0 0.0
2018-Feb-16 07:00N 29°14' W 095°02'0 0.0
2018-Feb-16 06:30N 29°14' W 095°02'0 0.0
2018-Feb-16 05:59N 29°14' W 095°02'0 0.1
2018-Feb-16 05:27N 29°14' W 095°02'0 0.0
2018-Feb-16 04:59N 29°14' W 095°02'0 0.0
2018-Feb-16 04:16N 29°14' W 095°02'0 0.0
2018-Feb-16 04:00N 29°14' W 095°02'0 0.0
2018-Feb-16 03:26N 29°14' W 095°02'0 0.0
2018-Feb-16 02:59N 29°14' W 095°02'0 0.0
2018-Feb-16 02:21N 29°14' W 095°02'0 0.0
2018-Feb-16 01:53N 29°14' W 095°02'0 0.0
2018-Feb-16 01:28N 29°14' W 095°02'0 0.0
2018-Feb-16 00:54N 29°14' W 095°02'0 0.0
2018-Feb-16 00:29N 29°14' W 095°02'0 0.9
2018-Feb-16 00:00N 29°14' W 095°01'3 5.6
2018-Feb-15 23:29N 29°16' W 094°59'6 6.8
2018-Feb-15 22:39N 29°18' W 094°53'5 6.9
2018-Feb-15 21:55N 29°21' W 094°48'7 5.7
2018-Feb-15 20:44N 29°26' W 094°43'2 6.0
2018-Feb-15 20:26N 29°27' W 094°41'16 5.9
2018-Feb-15 17:38N 29°36' W 094°25'1 6.3
2018-Feb-15 17:26N 29°36' W 094°23'3 6.4
2018-Feb-15 17:00N 29°37' W 094°21'4 6.6
2018-Feb-15 16:28N 29°39' W 094°17'2 3.5
2018-Feb-15 16:01N 29°39' W 094°15'0 0.0
2018-Feb-15 15:29N 29°39' W 094°15'0 0.0
2018-Feb-15 15:00N 29°39' W 094°15'1 2.5
2018-Feb-15 14:30N 29°40' W 094°14'2 3.0
2018-Feb-15 14:00N 29°41' W 094°12'2 3.6
2018-Feb-15 13:29N 29°41' W 094°10'2 4.2
2018-Feb-15 13:00N 29°42' W 094°08'0 0.1
2018-Feb-15 12:30N 29°42' W 094°08'0 0.0
2018-Feb-15 12:00N 29°42' W 094°08'0 0.0
2018-Feb-15 11:30N 29°42' W 094°08'0 0.0
2018-Feb-15 11:01N 29°42' W 094°08'0 0.0
2018-Feb-15 10:30N 29°42' W 094°08'0 0.0
2018-Feb-15 10:00N 29°42' W 094°08'0 0.0
2018-Feb-15 09:31N 29°42' W 094°08'0 0.0
2018-Feb-15 09:00N 29°42' W 094°08'0 0.0
2018-Feb-15 08:30N 29°42' W 094°08'0 0.0
2018-Feb-15 07:59N 29°42' W 094°08'0 0.0
2018-Feb-15 07:31N 29°42' W 094°08'0 0.0
2018-Feb-15 07:01N 29°42' W 094°08'0 0.0
2018-Feb-15 06:31N 29°42' W 094°08'0 0.0
2018-Feb-15 06:00N 29°42' W 094°08'0 0.0
2018-Feb-15 05:31N 29°42' W 094°08'0 0.0
2018-Feb-15 05:01N 29°42' W 094°08'0 0.0
2018-Feb-15 04:30N 29°42' W 094°08'0 0.0
2018-Feb-15 04:00N 29°42' W 094°08'0 0.0
2018-Feb-15 03:31N 29°42' W 094°08'0 0.0
2018-Feb-15 02:58N 29°42' W 094°08'0 0.0
2018-Feb-15 02:30N 29°42' W 094°08'0 0.0
2018-Feb-15 02:01N 29°42' W 094°08'0 0.0
2018-Feb-15 01:30N 29°42' W 094°08'0 0.0
2018-Feb-15 01:00N 29°42' W 094°08'0 0.1
2018-Feb-15 00:29N 29°42' W 094°08'0 0.0
2018-Feb-14 23:59N 29°42' W 094°08'1 2.5
2018-Feb-14 23:31N 29°43' W 094°07'3 6.9
2018-Feb-14 23:01N 29°45' W 094°04'3 6.9
2018-Feb-14 22:31N 29°47' W 094°01'3 6.0
2018-Feb-14 22:00N 29°49' W 093°58'4 7.5
2018-Feb-14 21:30N 29°52' W 093°56'4 8.0
2018-Feb-14 21:00N 29°55' W 093°53'3 7.0
2018-Feb-14 20:31N 29°59' W 093°52'4 8.3
2018-Feb-14 20:00N 29°60' W 093°57'3 6.6
2018-Feb-14 19:30N 30°01' W 094°00'2 4.5
2018-Feb-14 19:01N 30°03' W 094°02'0 0.1
2018-Feb-14 18:31N 30°03' W 094°02'0 0.0
2018-Feb-14 18:00N 30°03' W 094°02'0 0.0
2018-Feb-14 17:30N 30°03' W 094°02'0 0.0
2018-Feb-14 17:01N 30°03' W 094°02'0 0.0
2018-Feb-14 16:30N 30°03' W 094°02'0 0.0
2018-Feb-14 16:01N 30°03' W 094°02'0 0.0
2018-Feb-14 15:30N 30°03' W 094°02'0 0.0
2018-Feb-14 15:01N 30°03' W 094°02'0 0.0
2018-Feb-14 14:30N 30°03' W 094°02'0 0.0
2018-Feb-14 14:00N 30°03' W 094°02'0 0.0
2018-Feb-14 13:31N 30°03' W 094°02'0 0.0
2018-Feb-14 13:01N 30°03' W 094°02'0 0.0
2018-Feb-14 12:31N 30°03' W 094°02'0 0.0
2018-Feb-14 12:01N 30°03' W 094°02'0 0.0
2018-Feb-14 11:30N 30°03' W 094°02'0 0.0
2018-Feb-14 11:01N 30°03' W 094°02'0 0.0
2018-Feb-14 10:31N 30°03' W 094°02'0 0.0
2018-Feb-14 10:01N 30°03' W 094°02'0 0.0
2018-Feb-14 09:31N 30°03' W 094°02'0 0.0
2018-Feb-14 09:01N 30°03' W 094°02'0 0.0
2018-Feb-14 08:30N 30°03' W 094°02'0 0.0
2018-Feb-14 08:01N 30°03' W 094°02'0 0.0
2018-Feb-14 07:31N 30°03' W 094°02'0 0.0
2018-Feb-14 07:00N 30°03' W 094°02'0 0.0
2018-Feb-14 06:31N 30°03' W 094°02'0 0.0
2018-Feb-14 06:01N 30°03' W 094°02'0 0.0
2018-Feb-14 05:31N 30°03' W 094°02'0 0.0
2018-Feb-14 05:00N 30°03' W 094°02'0 0.0
2018-Feb-14 04:31N 30°03' W 094°02'0 0.0
2018-Feb-14 04:01N 30°03' W 094°02'0 0.0
2018-Feb-14 03:30N 30°03' W 094°02'0 0.0
2018-Feb-14 03:00N 30°03' W 094°02'0 0.0
2018-Feb-14 02:31N 30°03' W 094°02'0 0.0
2018-Feb-14 02:01N 30°03' W 094°02'0 0.0
2018-Feb-14 01:31N 30°03' W 094°02'0 0.0
2018-Feb-14 01:00N 30°03' W 094°02'0 0.0
2018-Feb-14 00:31N 30°03' W 094°02'0 0.0
2018-Feb-14 00:01N 30°03' W 094°02'0 0.0
2018-Feb-13 23:31N 30°03' W 094°02'0 0.0
2018-Feb-13 23:01N 30°03' W 094°02'0 0.0
2018-Feb-13 22:31N 30°03' W 094°02'0 0.0
2018-Feb-13 22:01N 30°03' W 094°02'0 0.0
2018-Feb-13 21:30N 30°03' W 094°02'0 0.1
2018-Feb-13 21:01N 30°03' W 094°02'1 1.9
2018-Feb-13 20:30N 30°02' W 094°02'2 4.5
2018-Feb-13 20:00N 30°01' W 093°59'2 3.9
2018-Feb-13 19:30N 30°00' W 093°57'2 3.7
2018-Feb-13 19:01N 29°60' W 093°55'1 1.0
2018-Feb-13 18:30N 29°60' W 093°55'0 0.0
2018-Feb-13 18:01N 29°60' W 093°55'0 0.0
2018-Feb-13 17:31N 29°60' W 093°55'0 0.0
2018-Feb-13 17:00N 29°60' W 093°55'0 0.0
2018-Feb-13 16:31N 29°60' W 093°55'0 0.0
2018-Feb-13 16:01N 29°60' W 093°55'0 0.0
2018-Feb-13 15:30N 29°60' W 093°55'0 0.0
2018-Feb-13 15:00N 29°60' W 093°55'0 0.0
2018-Feb-13 14:31N 29°60' W 093°55'0 0.0
2018-Feb-13 14:00N 29°60' W 093°55'0 0.0
2018-Feb-13 13:31N 29°60' W 093°55'0 0.0
2018-Feb-13 13:01N 29°60' W 093°55'0 0.0
2018-Feb-13 12:30N 29°60' W 093°55'0 0.0
2018-Feb-13 12:00N 29°60' W 093°55'0 0.0
2018-Feb-13 11:31N 29°60' W 093°55'0 0.0
2018-Feb-13 11:01N 29°60' W 093°55'0 0.0
2018-Feb-13 10:31N 29°60' W 093°55'0 0.0
2018-Feb-13 10:00N 29°60' W 093°55'0 0.0
2018-Feb-13 09:30N 29°60' W 093°55'0 0.0
2018-Feb-13 09:01N 29°60' W 093°55'0 0.0
2018-Feb-13 08:30N 29°60' W 093°55'0 0.0
2018-Feb-13 08:01N 29°60' W 093°55'0 0.0
2018-Feb-13 07:30N 29°60' W 093°55'0 0.0
2018-Feb-13 07:00N 29°60' W 093°55'0 0.0
2018-Feb-13 06:31N 29°60' W 093°55'0 0.0
2018-Feb-13 06:01N 29°60' W 093°55'0 0.0
2018-Feb-13 05:31N 29°60' W 093°55'0 0.0
2018-Feb-13 05:01N 29°60' W 093°55'0 0.0
2018-Feb-13 04:30N 29°60' W 093°55'  
Track history (hours):
 
Tides and Currents Weather Stations Pressure Air Temp Water Temp Dewpoint Dewpoint Depression Visibility Wind Speed Wind Dir Waves Ship Positions

Savage Legacy

Owner: Savage Inland Marine, Gibson, LA. More information available from US FCC via Universal Licensing System and Coast Guard Vessel Documentation Center.

Last reported at 2018-Feb-23 05:00 UTC. Time now 2018-Feb-23 05:00 UTC.
Position N 30°04' W 093°20'.

MMSI: 367615680.

Date/timePositionNaut miles runAvg speedWind from/ knotsBaromVisibWave heightAir tempDewpointWater temp
2018-Feb-23 05:00N 30°04' W 093°20'0 0.0
2018-Feb-23 04:28N 30°04' W 093°20'0 0.0
2018-Feb-23 03:55N 30°04' W 093°20'0 0.0
2018-Feb-23 03:28N 30°04' W 093°20'0 0.0
2018-Feb-23 02:58N 30°04' W 093°20'0 0.0
2018-Feb-23 02:30N 30°04' W 093°20'0 0.0
2018-Feb-23 02:00N 30°04' W 093°20'0 0.0
2018-Feb-23 01:28N 30°04' W 093°20'0 0.0
2018-Feb-23 01:00N 30°04' W 093°20'0 0.0
2018-Feb-23 00:30N 30°04' W 093°20'1 2.0
2018-Feb-22 23:58N 30°05' W 093°20'2 2.5
2018-Feb-22 23:22N 30°06' W 093°18'0 0.0
2018-Feb-22 22:56N 30°06' W 093°18'0 0.0
2018-Feb-22 22:30N 30°06' W 093°18'3 4.3
2018-Feb-22 21:53N 30°04' W 093°20'1 1.9
2018-Feb-22 21:21N 30°04' W 093°21'0 0.0
2018-Feb-22 20:59N 30°04' W 093°21'2 0.4
2018-Feb-22 16:32N 30°05' W 093°20'0 0.0
2018-Feb-22 16:30N 30°05' W 093°20'0 0.0
2018-Feb-22 15:48N 30°05' W 093°20'0 0.0
2018-Feb-22 15:30N 30°05' W 093°20'1 2.0
2018-Feb-22 14:54N 30°04' W 093°21'1 1.4
2018-Feb-22 14:16N 30°05' W 093°20'0 1.1
2018-Feb-22 13:52N 30°04' W 093°20'1 2.4
2018-Feb-22 13:30N 30°04' W 093°21'2 3.2
2018-Feb-22 13:00N 30°04' W 093°23'1 1.0
2018-Feb-22 12:28N 30°04' W 093°23'3 4.3
2018-Feb-22 11:46N 30°04' W 093°27'8 5.0
2018-Feb-22 10:14N 30°04' W 093°36'2 5.1
2018-Feb-22 09:46N 30°04' W 093°39'2 5.2
2018-Feb-22 09:28N 30°04' W 093°40'2 5.3
2018-Feb-22 09:00N 30°03' W 093°43'2 5.0
2018-Feb-22 08:30N 30°01' W 093°45'3 5.4
2018-Feb-22 08:00N 29°59' W 093°47'3 6.4
2018-Feb-22 07:30N 29°58' W 093°51'3 5.8
2018-Feb-22 07:00N 29°56' W 093°52'3 5.8
2018-Feb-22 06:30N 29°54' W 093°55'3 6.0
2018-Feb-22 06:00N 29°51' W 093°57'2 4.8
2018-Feb-22 05:30N 29°49' W 093°58'2 3.1
2018-Feb-22 05:00N 29°49' W 093°60'3 5.8
2018-Feb-22 04:30N 29°46' W 094°02'3 5.5
2018-Feb-22 04:00N 29°45' W 094°05'3 5.4
2018-Feb-22 03:30N 29°43' W 094°07'3 5.5
2018-Feb-22 03:00N 29°41' W 094°10'3 5.3
2018-Feb-22 02:30N 29°41' W 094°13'2 4.3
2018-Feb-22 02:00N 29°40' W 094°15'3 5.0
2018-Feb-22 01:30N 29°38' W 094°17'163 3.3
2018-Feb-20 00:16N 28°09' W 096°54'2 4.1
2018-Feb-19 23:53N 28°08' W 096°55'2 4.8
2018-Feb-19 23:29N 28°07' W 096°56'3 5.6
2018-Feb-19 22:59N 28°04' W 096°58'3 5.7
2018-Feb-19 22:29N 28°02' W 096°60'3 5.8
2018-Feb-19 21:59N 27°60' W 097°02'7 5.6
2018-Feb-19 20:39N 27°52' W 097°03'1 6.5
2018-Feb-19 20:30N 27°52' W 097°03'6 0.2
2018-Feb-18 18:56N 27°50' W 097°09'3 6.5
2018-Feb-18 18:27N 27°50' W 097°06'2 5.2
2018-Feb-18 17:59N 27°51' W 097°03'4 7.0
2018-Feb-18 17:24N 27°55' W 097°03'3 7.6
2018-Feb-18 16:58N 27°58' W 097°03'3 7.3
2018-Feb-18 16:30N 28°01' W 097°01'4 7.0
2018-Feb-18 16:00N 28°04' W 096°58'3 6.7
2018-Feb-18 15:29N 28°07' W 096°56'3 6.6
2018-Feb-18 15:00N 28°09' W 096°54'3 6.6
2018-Feb-18 14:29N 28°11' W 096°51'2 4.9
2018-Feb-18 14:00N 28°13' W 096°49'16 3.5
2018-Feb-18 09:28N 28°22' W 096°34'0 0.0
2018-Feb-18 08:52N 28°22' W 096°34'0 0.0
2018-Feb-18 07:56N 28°22' W 096°34'0 0.0
2018-Feb-18 07:26N 28°22' W 096°34'0 0.0
2018-Feb-18 05:12N 28°22' W 096°34'0 0.0
2018-Feb-18 04:51N 28°22' W 096°34'0 0.0
2018-Feb-18 04:28N 28°22' W 096°34'0 0.0
2018-Feb-18 03:59N 28°22' W 096°34'0 0.0
2018-Feb-18 03:28N 28°22' W 096°34'0 0.0
2018-Feb-18 02:58N 28°22' W 096°34'0 0.0
2018-Feb-18 02:27N 28°22' W 096°34'0 0.0
2018-Feb-18 01:59N 28°22' W 096°34'0 0.0
2018-Feb-18 01:11N 28°22' W 096°34'97 2.3
2018-Feb-16 08:07N 29°14' W 095°02'0 0.0
2018-Feb-16 08:00N 29°14' W 095°02'0 0.0
2018-Feb-16 07:30N 29°14' W 095°02'0 0.0
2018-Feb-16 07:00N 29°14' W 095°02'0 0.0
2018-Feb-16 06:30N 29°14' W 095°02'0 0.0
2018-Feb-16 05:59N 29°14' W 095°02'0 0.1
2018-Feb-16 05:27N 29°14' W 095°02'0 0.0
2018-Feb-16 04:59N 29°14' W 095°02'0 0.0
2018-Feb-16 04:16N 29°14' W 095°02'0 0.0
2018-Feb-16 04:00N 29°14' W 095°02'0 0.0
2018-Feb-16 03:26N 29°14' W 095°02'0 0.0
2018-Feb-16 02:59N 29°14' W 095°02'0 0.0
2018-Feb-16 02:21N 29°14' W 095°02'0 0.0
2018-Feb-16 01:53N 29°14' W 095°02'0 0.0
2018-Feb-16 01:28N 29°14' W 095°02'0 0.0
2018-Feb-16 00:54N 29°14' W 095°02'0 0.0
2018-Feb-16 00:29N 29°14' W 095°02'0 0.9
2018-Feb-16 00:00N 29°14' W 095°01'3 5.6
2018-Feb-15 23:29N 29°16' W 094°59'6 6.8
2018-Feb-15 22:39N 29°18' W 094°53'5 6.9
2018-Feb-15 21:55N 29°21' W 094°48'7 5.7
2018-Feb-15 20:44N 29°26' W 094°43'2 6.0
2018-Feb-15 20:26N 29°27' W 094°41'16 5.9
2018-Feb-15 17:38N 29°36' W 094°25'1 6.3
2018-Feb-15 17:26N 29°36' W 094°23'3 6.4
2018-Feb-15 17:00N 29°37' W 094°21'4 6.6
2018-Feb-15 16:28N 29°39' W 094°17'2 3.5
2018-Feb-15 16:01N 29°39' W 094°15'0 0.0
2018-Feb-15 15:29N 29°39' W 094°15'0 0.0
2018-Feb-15 15:00N 29°39' W 094°15'1 2.5
2018-Feb-15 14:30N 29°40' W 094°14'2 3.0
2018-Feb-15 14:00N 29°41' W 094°12'2 3.6
2018-Feb-15 13:29N 29°41' W 094°10'2 4.2
2018-Feb-15 13:00N 29°42' W 094°08'0 0.1
2018-Feb-15 12:30N 29°42' W 094°08'0 0.0
2018-Feb-15 12:00N 29°42' W 094°08'0 0.0
2018-Feb-15 11:30N 29°42' W 094°08'0 0.0
2018-Feb-15 11:01N 29°42' W 094°08'0 0.0
2018-Feb-15 10:30N 29°42' W 094°08'0 0.0
2018-Feb-15 10:00N 29°42' W 094°08'0 0.0
2018-Feb-15 09:31N 29°42' W 094°08'0 0.0
2018-Feb-15 09:00N 29°42' W 094°08'0 0.0
2018-Feb-15 08:30N 29°42' W 094°08'0 0.0
2018-Feb-15 07:59N 29°42' W 094°08'0 0.0
2018-Feb-15 07:31N 29°42' W 094°08'0 0.0
2018-Feb-15 07:01N 29°42' W 094°08'0 0.0
2018-Feb-15 06:31N 29°42' W 094°08'0 0.0
2018-Feb-15 06:00N 29°42' W 094°08'0 0.0
2018-Feb-15 05:31N 29°42' W 094°08'0 0.0
2018-Feb-15 05:01N 29°42' W 094°08'0 0.0
2018-Feb-15 04:30N 29°42' W 094°08'0 0.0
2018-Feb-15 04:00N 29°42' W 094°08'0 0.0
2018-Feb-15 03:31N 29°42' W 094°08'0 0.0
2018-Feb-15 02:58N 29°42' W 094°08'0 0.0
2018-Feb-15 02:30N 29°42' W 094°08'0 0.0
2018-Feb-15 02:01N 29°42' W 094°08'0 0.0
2018-Feb-15 01:30N 29°42' W 094°08'0 0.0
2018-Feb-15 01:00N 29°42' W 094°08'0 0.1
2018-Feb-15 00:29N 29°42' W 094°08'0 0.0
2018-Feb-14 23:59N 29°42' W 094°08'1 2.5
2018-Feb-14 23:31N 29°43' W 094°07'3 6.9
2018-Feb-14 23:01N 29°45' W 094°04'3 6.9
2018-Feb-14 22:31N 29°47' W 094°01'3 6.0
2018-Feb-14 22:00N 29°49' W 093°58'4 7.5
2018-Feb-14 21:30N 29°52' W 093°56'4 8.0
2018-Feb-14 21:00N 29°55' W 093°53'3 7.0
2018-Feb-14 20:31N 29°59' W 093°52'4 8.3
2018-Feb-14 20:00N 29°60' W 093°57'3 6.6
2018-Feb-14 19:30N 30°01' W 094°00'2 4.5
2018-Feb-14 19:01N 30°03' W 094°02'0 0.1
2018-Feb-14 18:31N 30°03' W 094°02'0 0.0
2018-Feb-14 18:00N 30°03' W 094°02'0 0.0
2018-Feb-14 17:30N 30°03' W 094°02'0 0.0
2018-Feb-14 17:01N 30°03' W 094°02'0 0.0
2018-Feb-14 16:30N 30°03' W 094°02'0 0.0
2018-Feb-14 16:01N 30°03' W 094°02'0 0.0
2018-Feb-14 15:30N 30°03' W 094°02'0 0.0
2018-Feb-14 15:01N 30°03' W 094°02'0 0.0
2018-Feb-14 14:30N 30°03' W 094°02'0 0.0
2018-Feb-14 14:00N 30°03' W 094°02'0 0.0
2018-Feb-14 13:31N 30°03' W 094°02'0 0.0
2018-Feb-14 13:01N 30°03' W 094°02'0 0.0
2018-Feb-14 12:31N 30°03' W 094°02'0 0.0
2018-Feb-14 12:01N 30°03' W 094°02'0 0.0
2018-Feb-14 11:30N 30°03' W 094°02'0 0.0
2018-Feb-14 11:01N 30°03' W 094°02'0 0.0
2018-Feb-14 10:31N 30°03' W 094°02'0 0.0
2018-Feb-14 10:01N 30°03' W 094°02'0 0.0
2018-Feb-14 09:31N 30°03' W 094°02'0 0.0
2018-Feb-14 09:01N 30°03' W 094°02'0 0.0
2018-Feb-14 08:30N 30°03' W 094°02'0 0.0
2018-Feb-14 08:01N 30°03' W 094°02'0 0.0
2018-Feb-14 07:31N 30°03' W 094°02'0 0.0
2018-Feb-14 07:00N 30°03' W 094°02'0 0.0
2018-Feb-14 06:31N 30°03' W 094°02'0 0.0
2018-Feb-14 06:01N 30°03' W 094°02'0 0.0
2018-Feb-14 05:31N 30°03' W 094°02'0 0.0
2018-Feb-14 05:00N 30°03' W 094°02'0 0.0
2018-Feb-14 04:31N 30°03' W 094°02'0 0.0
2018-Feb-14 04:01N 30°03' W 094°02'0 0.0
2018-Feb-14 03:30N 30°03' W 094°02'0 0.0
2018-Feb-14 03:00N 30°03' W 094°02'0 0.0
2018-Feb-14 02:31N 30°03' W 094°02'0 0.0
2018-Feb-14 02:01N 30°03' W 094°02'0 0.0
2018-Feb-14 01:31N 30°03' W 094°02'0 0.0
2018-Feb-14 01:00N 30°03' W 094°02'0 0.0
2018-Feb-14 00:31N 30°03' W 094°02'0 0.0
2018-Feb-14 00:01N 30°03' W 094°02'0 0.0
2018-Feb-13 23:31N 30°03' W 094°02'0 0.0
2018-Feb-13 23:01N 30°03' W 094°02'0 0.0
2018-Feb-13 22:31N 30°03' W 094°02'0 0.0
2018-Feb-13 22:01N 30°03' W 094°02'0 0.0
2018-Feb-13 21:30N 30°03' W 094°02'0 0.1
2018-Feb-13 21:01N 30°03' W 094°02'1 1.9
2018-Feb-13 20:30N 30°02' W 094°02'2 4.5
2018-Feb-13 20:00N 30°01' W 093°59'2 3.9
2018-Feb-13 19:30N 30°00' W 093°57'2 3.7
2018-Feb-13 19:01N 29°60' W 093°55'1 1.0
2018-Feb-13 18:30N 29°60' W 093°55'0 0.0
2018-Feb-13 18:01N 29°60' W 093°55'0 0.0
2018-Feb-13 17:31N 29°60' W 093°55'0 0.0
2018-Feb-13 17:00N 29°60' W 093°55'0 0.0
2018-Feb-13 16:31N 29°60' W 093°55'0 0.0
2018-Feb-13 16:01N 29°60' W 093°55'0 0.0
2018-Feb-13 15:30N 29°60' W 093°55'0 0.0
2018-Feb-13 15:00N 29°60' W 093°55'0 0.0
2018-Feb-13 14:31N 29°60' W 093°55'0 0.0
2018-Feb-13 14:00N 29°60' W 093°55'0 0.0
2018-Feb-13 13:31N 29°60' W 093°55'0 0.0
2018-Feb-13 13:01N 29°60' W 093°55'0 0.0
2018-Feb-13 12:30N 29°60' W 093°55'0 0.0
2018-Feb-13 12:00N 29°60' W 093°55'0 0.0
2018-Feb-13 11:31N 29°60' W 093°55'0 0.0
2018-Feb-13 11:01N 29°60' W 093°55'0 0.0
2018-Feb-13 10:31N 29°60' W 093°55'0 0.0
2018-Feb-13 10:00N 29°60' W 093°55'0 0.0
2018-Feb-13 09:30N 29°60' W 093°55'0 0.0
2018-Feb-13 09:01N 29°60' W 093°55'0 0.0
2018-Feb-13 08:30N 29°60' W 093°55'0 0.0
2018-Feb-13 08:01N 29°60' W 093°55'0 0.0
2018-Feb-13 07:30N 29°60' W 093°55'0 0.0
2018-Feb-13 07:00N 29°60' W 093°55'0 0.0
2018-Feb-13 06:31N 29°60' W 093°55'0 0.0
2018-Feb-13 06:01N 29°60' W 093°55'0 0.0
2018-Feb-13 05:31N 29°60' W 093°55'0 0.0
2018-Feb-13 05:01N 29°60' W 093°55'0 0.0
2018-Feb-13 04:30N 29°60' W 093°55'  

Dump ship's entire track history